Time;durP1;ratioP1;P1;durP2;ratioP2;P2;SDS_P1;SDS_P2;PMS_P1;PMS_P2;Temp;Humidity;BMP_temperature;BMP_pressure;BME280_temperature;BME280_humidity;BME280_pressure;Samples;Min_cycle;Max_cycle;Signal;HPM_P1;HPM_P2
2023/10/29 00:00:16;;;;;;;42.45;39.35;;;;;;;;;;5042592;28;25064;-61
2023/10/29 00:02:42;;;;;;;41.78;38.47;;;;;;;;;;5044387;28;25156;-61
2023/10/29 00:05:08;;;;;;;41.28;38.05;;;;;;;;;;5047962;28;25081;-62
2023/10/29 00:07:34;;;;;;;43.92;40.38;;;;;;;;;;5047030;28;25061;-63
2023/10/29 00:10:00;;;;;;;44.25;40.90;;;;;;;;;;5047552;28;25065;-64
2023/10/29 00:12:26;;;;;;;46.42;42.75;;;;;;;;;;5047164;28;25070;-62
2023/10/29 00:14:52;;;;;;;48.83;45.17;;;;;;;;;;5040076;28;25066;-64
2023/10/29 00:17:18;;;;;;;47.50;44.08;;;;;;;;;;5047969;28;25104;-63
2023/10/29 00:19:44;;;;;;;50.60;46.90;;;;;;;;;;5047993;28;25053;-63
2023/10/29 00:22:11;;;;;;;49.38;45.88;;;;;;;;;;5042034;28;25061;-63
2023/10/29 00:24:37;;;;;;;49.17;45.78;;;;;;;;;;5039501;28;25132;-62
2023/10/29 00:27:03;;;;;;;49.28;45.75;;;;;;;;;;5039515;28;25147;-61
2023/10/29 00:29:29;;;;;;;49.15;45.80;;;;;;;;;;5041944;28;25074;-61
2023/10/29 00:31:55;;;;;;;47.20;44.00;;;;;;;;;;5044507;28;25069;-61
2023/10/29 00:34:21;;;;;;;47.35;43.83;;;;;;;;;;5038360;28;25079;-64
2023/10/29 00:36:47;;;;;;;46.05;42.75;;;;;;;;;;5050926;28;25071;-63
2023/10/29 00:39:13;;;;;;;44.47;41.47;;;;;;;;;;5047350;28;25052;-61
2023/10/29 00:41:39;;;;;;;43.75;40.88;;;;;;;;;;5039734;28;25080;-61
2023/10/29 00:44:05;;;;;;;42.67;39.70;;;;;;;;;;5044489;28;25074;-63
2023/10/29 00:46:31;;;;;;;41.13;38.00;;;;;;;;;;5044585;28;25085;-62
2023/10/29 00:48:57;;;;;;;37.30;34.92;;;;;;;;;;5046044;28;25159;-63
2023/10/29 00:51:23;;;;;;;33.88;32.08;;;;;;;;;;5044349;28;25108;-60
2023/10/29 00:53:49;;;;;;;33.72;31.83;;;;;;;;;;5040363;28;25146;-62
2023/10/29 00:56:18;;;;;;;32.08;30.27;;;;;;;;;;5043253;28;25089;-61
2023/10/29 00:58:44;;;;;;;32.78;30.88;;;;;;;;;;5039306;28;25053;-61
2023/10/29 01:01:10;;;;;;;30.05;28.23;;;;;;;;;;5036417;28;25062;-61
2023/10/29 01:03:36;;;;;;;25.05;23.75;;;;;;;;;;5023264;28;25070;-60
2023/10/29 01:06:02;;;;;;;23.60;22.15;;;;;;;;;;5026659;28;25055;-60
2023/10/29 01:08:28;;;;;;;22.75;21.60;;;;;;;;;;5020337;28;25070;-61
2023/10/29 01:10:55;;;;;;;19.73;18.23;;;;;;;;;;5018828;28;25081;-60
2023/10/29 01:13:21;;;;;;;18.17;17.08;;;;;;;;;;5021725;28;25099;-61
2023/10/29 01:15:47;;;;;;;15.77;14.88;;;;;;;;;;5025832;28;25118;-62
2023/10/29 01:18:13;;;;;;;13.90;12.98;;;;;;;;;;5023734;28;25083;-61
2023/10/29 01:20:39;;;;;;;11.52;10.82;;;;;;;;;;5023697;28;25081;-62
2023/10/29 01:23:05;;;;;;;13.23;12.43;;;;;;;;;;5020981;28;25132;-62
2023/10/29 01:25:31;;;;;;;14.68;13.88;;;;;;;;;;5021801;28;25072;-62
2023/10/29 01:27:57;;;;;;;11.82;11.00;;;;;;;;;;5020568;28;25131;-61
2023/10/29 01:30:23;;;;;;;9.82;9.13;;;;;;;;;;5024183;28;25154;-61
2023/10/29 01:32:49;;;;;;;9.10;8.38;;;;;;;;;;5015853;28;25096;-60
2023/10/29 01:35:15;;;;;;;9.00;8.50;;;;;;;;;;5019296;28;25129;-59
2023/10/29 01:37:41;;;;;;;9.75;8.90;;;;;;;;;;5018152;28;25069;-60
2023/10/29 01:40:08;;;;;;;9.80;9.13;;;;;;;;;;5027221;28;25064;-61
2023/10/29 01:42:34;;;;;;;8.85;8.25;;;;;;;;;;5019126;28;25083;-61
2023/10/29 01:44:59;;;;;;;6.70;6.15;;;;;;;;;;5021146;28;25072;-62
2023/10/29 01:47:25;;;;;;;7.38;6.78;;;;;;;;;;5024567;28;25033;-60
2023/10/29 01:49:51;;;;;;;6.32;5.90;;;;;;;;;;5018253;28;25070;-61
2023/10/29 01:52:17;;;;;;;3.50;3.20;;;;;;;;;;5022170;28;25059;-60
2023/10/29 01:54:43;;;;;;;3.22;3.03;;;;;;;;;;5014843;28;25108;-60
2023/10/29 01:57:09;;;;;;;2.75;2.58;;;;;;;;;;5025655;28;25140;-61
2023/10/29 01:59:35;;;;;;;5.57;2.80;;;;;;;;;;5012722;28;25081;-61
2023/10/29 02:02:01;;;;;;;3.00;2.20;;;;;;;;;;5022981;28;25059;-60
2023/10/29 02:04:30;;;;;;;4.60;1.65;;;;;;;;;;5036722;28;25146;-62
2023/10/29 02:06:56;;;;;;;1.50;1.20;;;;;;;;;;5043086;28;25059;-61
2023/10/29 02:09:22;;;;;;;1.30;1.20;;;;;;;;;;5041539;28;25108;-60
2023/10/29 02:11:48;;;;;;;4.90;1.42;;;;;;;;;;5043617;28;25078;-60
2023/10/29 02:14:14;;;;;;;1.25;1.15;;;;;;;;;;5044127;28;25104;-61
2023/10/29 02:16:40;;;;;;;1.80;1.70;;;;;;;;;;5039610;28;25074;-62
2023/10/29 02:19:07;;;;;;;4.30;2.53;;;;;;;;;;5035365;28;25100;-61
2023/10/29 02:21:34;;;;;;;3.40;3.10;;;;;;;;;;5059624;28;25089;-60
2023/10/29 02:24:03;;;;;;;4.90;4.60;;;;;;;;;;5036555;28;25101;-60
2023/10/29 02:26:29;;;;;;;5.75;5.45;;;;;;;;;;5043558;28;25172;-59
2023/10/29 02:28:55;;;;;;;7.78;7.38;;;;;;;;;;5039759;28;25080;-60
2023/10/29 02:31:21;;;;;;;6.97;6.60;;;;;;;;;;5042864;28;25071;-60
2023/10/29 02:33:47;;;;;;;8.50;8.02;;;;;;;;;;5041251;28;25126;-60
2023/10/29 02:36:14;;;;;;;8.65;8.15;;;;;;;;;;5041577;28;25065;-61
2023/10/29 02:38:40;;;;;;;10.00;9.50;;;;;;;;;;5045202;28;25078;-63
2023/10/29 02:41:06;;;;;;;9.57;8.88;;;;;;;;;;5044254;28;25067;-61
2023/10/29 02:43:32;;;;;;;11.10;10.45;;;;;;;;;;5043154;28;25071;-61
2023/10/29 02:45:58;;;;;;;14.60;13.75;;;;;;;;;;5037313;28;25065;-62
2023/10/29 02:48:25;;;;;;;19.63;18.73;;;;;;;;;;5043188;28;25152;-61
2023/10/29 02:50:51;;;;;;;24.38;23.27;;;;;;;;;;5045018;28;25064;-61
2023/10/29 02:53:17;;;;;;;24.92;23.70;;;;;;;;;;5043466;28;25058;-61
2023/10/29 02:55:43;;;;;;;22.33;20.95;;;;;;;;;;5041520;28;25140;-61
2023/10/29 02:58:09;;;;;;;20.10;19.00;;;;;;;;;;5046231;28;25079;-59
2023/10/29 03:00:35;;;;;;;19.15;18.15;;;;;;;;;;5028145;28;26198;-60
2023/10/29 03:03:01;;;;;;;15.35;14.30;;;;;;;;;;5036354;28;25075;-60
2023/10/29 03:05:27;;;;;;;13.65;12.75;;;;;;;;;;5038167;28;25101;-60
2023/10/29 03:07:53;;;;;;;11.15;10.55;;;;;;;;;;5032325;28;25083;-60
2023/10/29 03:10:19;;;;;;;11.48;10.68;;;;;;;;;;5036935;28;25048;-61
2023/10/29 03:12:45;;;;;;;9.68;9.05;;;;;;;;;;5034119;28;25046;-60
2023/10/29 03:15:12;;;;;;;11.75;10.80;;;;;;;;;;5030617;28;25156;-60
2023/10/29 03:17:38;;;;;;;11.55;10.75;;;;;;;;;;5036684;28;25096;-62
2023/10/29 03:20:04;;;;;;;11.43;10.80;;;;;;;;;;5034519;28;25074;-60
2023/10/29 03:22:30;;;;;;;9.52;9.00;;;;;;;;;;5035990;28;25077;-61
2023/10/29 03:24:56;;;;;;;8.45;7.80;;;;;;;;;;5035164;28;25074;-61
2023/10/29 03:27:22;;;;;;;11.10;10.50;;;;;;;;;;5027580;28;25069;-60
2023/10/29 03:29:48;;;;;;;8.98;8.40;;;;;;;;;;5020754;28;25077;-59
2023/10/29 03:32:14;;;;;;;9.50;8.60;;;;;;;;;;5039281;28;25079;-60
2023/10/29 03:34:40;;;;;;;8.05;7.57;;;;;;;;;;5042940;28;25078;-60
2023/10/29 03:37:06;;;;;;;10.95;10.13;;;;;;;;;;5044445;28;25095;-60
2023/10/29 03:39:32;;;;;;;10.40;9.63;;;;;;;;;;5041818;28;25104;-59
2023/10/29 03:41:58;;;;;;;9.23;8.45;;;;;;;;;;5035626;28;25156;-60
2023/10/29 03:44:24;;;;;;;9.15;8.38;;;;;;;;;;5037411;28;25094;-60
2023/10/29 03:46:51;;;;;;;8.35;7.60;;;;;;;;;;5036844;28;25153;-61
2023/10/29 03:49:17;;;;;;;6.90;6.10;;;;;;;;;;5041483;28;25088;-62
2023/10/29 03:51:44;;;;;;;7.40;5.18;;;;;;;;;;5034148;28;25151;-60
2023/10/29 03:54:10;;;;;;;7.93;4.97;;;;;;;;;;5034721;28;25087;-60
2023/10/29 03:56:36;;;;;;;4.72;4.32;;;;;;;;;;5040750;28;25091;-60
2023/10/29 03:59:02;;;;;;;6.57;4.30;;;;;;;;;;5031176;28;25071;-59
2023/10/29 04:01:28;;;;;;;6.05;3.22;;;;;;;;;;5031169;28;25071;-61
2023/10/29 04:03:54;;;;;;;4.57;2.67;;;;;;;;;;5043527;28;25053;-60
2023/10/29 04:06:20;;;;;;;3.58;1.75;;;;;;;;;;5043838;28;25098;-59
2023/10/29 04:08:47;;;;;;;7.90;2.22;;;;;;;;;;5039746;28;25066;-58
2023/10/29 04:11:13;;;;;;;4.05;2.05;;;;;;;;;;5041981;28;25115;-60
2023/10/29 04:13:39;;;;;;;5.65;2.20;;;;;;;;;;5040238;28;25052;-60
2023/10/29 04:16:05;;;;;;;5.85;1.88;;;;;;;;;;5032028;28;25086;-61
2023/10/29 04:18:33;;;;;;;4.85;1.65;;;;;;;;;;5035879;28;25147;-60
2023/10/29 04:20:59;;;;;;;1.92;1.30;;;;;;;;;;5044010;28;25101;-60
2023/10/29 04:23:25;;;;;;;3.22;1.10;;;;;;;;;;5036019;28;25109;-60
2023/10/29 04:25:51;;;;;;;1.23;0.82;;;;;;;;;;5039193;28;25154;-61
2023/10/29 04:28:17;;;;;;;2.92;1.15;;;;;;;;;;5032024;28;25103;-62
2023/10/29 04:30:43;;;;;;;4.00;0.95;;;;;;;;;;5039596;28;25062;-62
2023/10/29 04:33:08;;;;;;;3.90;0.70;;;;;;;;;;5045561;28;25055;-62
2023/10/29 04:35:34;;;;;;;5.00;1.13;;;;;;;;;;5033878;28;25061;-61
2023/10/29 04:38:00;;;;;;;3.70;1.02;;;;;;;;;;5042465;28;25069;-59
2023/10/29 04:40:26;;;;;;;4.70;0.80;;;;;;;;;;5038902;28;25119;-61
2023/10/29 04:42:52;;;;;;;2.40;0.85;;;;;;;;;;5043850;28;25131;-60
2023/10/29 04:45:18;;;;;;;6.38;1.33;;;;;;;;;;5045935;28;25080;-61
2023/10/29 04:47:44;;;;;;;4.75;1.00;;;;;;;;;;5034629;28;25070;-60
2023/10/29 04:50:10;;;;;;;2.65;0.77;;;;;;;;;;5039470;28;25066;-60
2023/10/29 04:52:36;;;;;;;2.72;1.10;;;;;;;;;;5046595;28;25143;-59
2023/10/29 04:55:02;;;;;;;3.97;1.40;;;;;;;;;;5047292;28;25080;-60
2023/10/29 04:57:29;;;;;;;5.65;1.20;;;;;;;;;;5035694;28;25084;-60
2023/10/29 04:59:55;;;;;;;4.25;1.05;;;;;;;;;;5038071;28;25059;-60
2023/10/29 05:02:22;;;;;;;8.25;1.42;;;;;;;;;;5037292;28;25063;-60
2023/10/29 05:04:48;;;;;;;9.32;1.55;;;;;;;;;;5042152;28;25095;-60
2023/10/29 05:07:14;;;;;;;5.25;1.38;;;;;;;;;;5038732;28;25148;-61
2023/10/29 05:09:40;;;;;;;3.42;1.40;;;;;;;;;;5036681;28;25087;-61
2023/10/29 05:12:07;;;;;;;5.40;1.65;;;;;;;;;;5036836;28;25072;-60
2023/10/29 05:14:33;;;;;;;4.40;1.25;;;;;;;;;;5038428;28;25092;-60
2023/10/29 05:16:59;;;;;;;8.20;1.13;;;;;;;;;;5035661;28;25147;-62
2023/10/29 05:19:25;;;;;;;3.10;1.10;;;;;;;;;;5046091;28;25054;-60
2023/10/29 05:21:51;;;;;;;3.35;1.48;;;;;;;;;;5039164;28;25047;-60
2023/10/29 05:24:17;;;;;;;6.05;2.00;;;;;;;;;;5032499;28;25157;-60
2023/10/29 05:26:43;;;;;;;5.82;1.90;;;;;;;;;;5024872;28;25061;-61
2023/10/29 05:29:09;;;;;;;5.35;1.67;;;;;;;;;;5031369;28;25058;-63
2023/10/29 05:31:35;;;;;;;6.82;1.95;;;;;;;;;;5039920;28;25053;-61
2023/10/29 05:34:01;;;;;;;4.28;1.92;;;;;;;;;;5043444;28;25166;-60
2023/10/29 05:36:27;;;;;;;4.97;1.67;;;;;;;;;;5045805;28;25070;-62
2023/10/29 05:38:53;;;;;;;8.70;2.22;;;;;;;;;;5046248;28;25149;-60
2023/10/29 05:41:19;;;;;;;10.35;2.13;;;;;;;;;;5051684;28;25066;-59
2023/10/29 05:43:45;;;;;;;4.60;1.88;;;;;;;;;;5039991;28;25064;-61
2023/10/29 05:46:15;;;;;;;7.90;2.60;;;;;;;;;;5030264;28;25066;-58
2023/10/29 05:48:41;;;;;;;4.32;2.33;;;;;;;;;;5025293;28;25051;-59
2023/10/29 05:51:12;;;;;;;8.63;1.90;;;;;;;;;;5045973;28;25127;-60
2023/10/29 05:53:39;;;;;;;6.70;1.88;;;;;;;;;;5042546;28;25042;-60
2023/10/29 05:56:06;;;;;;;5.90;2.40;;;;;;;;;;5045783;28;25054;-60
2023/10/29 05:58:33;;;;;;;6.53;1.73;;;;;;;;;;5047699;28;25066;-60
2023/10/29 06:00:59;;;;;;;9.88;2.90;;;;;;;;;;5041528;28;25051;-60
2023/10/29 06:03:25;;;;;;;6.30;2.85;;;;;;;;;;5039569;28;25133;-60
2023/10/29 06:05:52;;;;;;;6.03;2.67;;;;;;;;;;5024487;28;25127;-60
2023/10/29 06:08:18;;;;;;;13.88;2.35;;;;;;;;;;5041282;28;25075;-60
2023/10/29 06:10:44;;;;;;;12.13;2.45;;;;;;;;;;5044981;28;25072;-60
2023/10/29 06:13:10;;;;;;;7.72;2.22;;;;;;;;;;5050133;28;25203;-60
2023/10/29 06:15:36;;;;;;;7.63;2.00;;;;;;;;;;5044711;28;25057;-63
2023/10/29 06:18:04;;;;;;;6.53;2.78;;;;;;;;;;5027212;28;25079;-60
2023/10/29 06:20:30;;;;;;;6.45;3.10;;;;;;;;;;5020333;28;25064;-61
2023/10/29 06:22:56;;;;;;;10.65;4.00;;;;;;;;;;5036571;28;25043;-61
2023/10/29 06:25:22;;;;;;;7.15;4.88;;;;;;;;;;5048917;28;25074;-60
2023/10/29 06:27:48;;;;;;;8.02;6.45;;;;;;;;;;5043055;28;25090;-61
2023/10/29 06:30:14;;;;;;;10.60;7.25;;;;;;;;;;5041437;28;25155;-60
2023/10/29 06:32:40;;;;;;;8.77;6.97;;;;;;;;;;5043167;28;25107;-61
2023/10/29 06:35:06;;;;;;;8.95;5.55;;;;;;;;;;5043277;28;25070;-60
2023/10/29 06:37:32;;;;;;;7.97;7.20;;;;;;;;;;5039508;28;25056;-60
2023/10/29 06:39:58;;;;;;;11.05;7.18;;;;;;;;;;5042911;28;25072;-59
2023/10/29 06:42:24;;;;;;;10.02;7.13;;;;;;;;;;5042184;28;24909;-60
2023/10/29 06:44:50;;;;;;;8.95;7.68;;;;;;;;;;5043493;28;25066;-59
2023/10/29 06:47:16;;;;;;;9.93;6.30;;;;;;;;;;5043737;28;25154;-60
2023/10/29 06:49:42;;;;;;;9.35;6.82;;;;;;;;;;5045242;28;25056;-60
2023/10/29 06:52:09;;;;;;;10.32;6.07;;;;;;;;;;5043672;28;25071;-60
2023/10/29 06:54:35;;;;;;;6.60;5.60;;;;;;;;;;5043320;28;25071;-61
2023/10/29 06:57:01;;;;;;;8.43;4.55;;;;;;;;;;5043901;28;25103;-61
2023/10/29 06:59:31;;;;;;;7.85;4.90;;;;;;;;;;5008709;28;25094;-60
2023/10/29 07:01:59;;;;;;;6.78;4.63;;;;;;;;;;5014106;28;25047;-60
2023/10/29 07:04:25;;;;;;;7.03;6.03;;;;;;;;;;5013742;28;25068;-63
2023/10/29 07:06:51;;;;;;;12.98;7.60;;;;;;;;;;5012494;28;25055;-60
2023/10/29 07:09:18;;;;;;;8.30;6.55;;;;;;;;;;5021820;28;25063;-61
2023/10/29 07:11:44;;;;;;;11.73;6.60;;;;;;;;;;5023496;28;25152;-59
2023/10/29 07:14:11;;;;;;;8.40;6.38;;;;;;;;;;5040334;28;25057;-63
2023/10/29 07:16:37;;;;;;;5.90;5.50;;;;;;;;;;5043853;28;25148;-60
2023/10/29 07:19:04;;;;;;;8.93;7.30;;;;;;;;;;5038961;28;25111;-62
2023/10/29 07:21:30;;;;;;;12.18;6.50;;;;;;;;;;5036814;28;25086;-60
2023/10/29 07:23:56;;;;;;;10.23;5.07;;;;;;;;;;5022348;28;25067;-60
2023/10/29 07:26:22;;;;;;;9.20;3.80;;;;;;;;;;5021746;28;25079;-59
2023/10/29 07:28:48;;;;;;;7.88;4.10;;;;;;;;;;5015544;28;25016;-61
2023/10/29 07:31:14;;;;;;;5.93;2.80;;;;;;;;;;5024218;28;25079;-60
2023/10/29 07:33:40;;;;;;;8.15;2.95;;;;;;;;;;5021586;28;25057;-60
2023/10/29 07:36:07;;;;;;;8.63;2.60;;;;;;;;;;5022814;28;25069;-60
2023/10/29 07:38:33;;;;;;;11.35;2.63;;;;;;;;;;5023610;28;25130;-60
2023/10/29 07:40:58;;;;;;;13.80;2.75;;;;;;;;;;5024328;28;25052;-60
2023/10/29 07:43:25;;;;;;;9.82;2.05;;;;;;;;;;5024390;28;25062;-61
2023/10/29 07:45:52;;;;;;;8.43;2.10;;;;;;;;;;5019262;28;25050;-62
2023/10/29 07:48:18;;;;;;;7.93;1.90;;;;;;;;;;5020981;28;25053;-61
2023/10/29 07:50:53;;;;;;;8.63;2.03;;;;;;;;;;5024148;28;25060;-61
2023/10/29 07:53:19;;;;;;;11.27;2.72;;;;;;;;;;5024314;28;25047;-62
2023/10/29 07:55:46;;;;;;;5.50;1.73;;;;;;;;;;5024767;28;25084;-60
2023/10/29 07:58:12;;;;;;;6.75;2.25;;;;;;;;;;5024012;28;25059;-60
2023/10/29 08:00:38;;;;;;;8.68;2.70;;;;;;;;;;5025393;28;25000;-62
2023/10/29 08:03:04;;;;;;;9.02;3.15;;;;;;;;;;5023454;28;24991;-61
2023/10/29 08:05:30;;;;;;;7.15;3.30;;;;;;;;;;5021577;28;25073;-60
2023/10/29 08:07:56;;;;;;;8.02;3.83;;;;;;;;;;5022875;28;25110;-61
2023/10/29 08:10:24;;;;;;;11.68;3.95;;;;;;;;;;5028685;28;25066;-60
2023/10/29 08:12:50;;;;;;;14.20;3.88;;;;;;;;;;5025298;28;25090;-60
2023/10/29 08:15:16;;;;;;;8.15;3.83;;;;;;;;;;5027772;28;25071;-62
2023/10/29 08:17:42;;;;;;;10.90;4.60;;;;;;;;;;5023122;28;25075;-60
2023/10/29 08:20:09;;;;;;;14.30;4.68;;;;;;;;;;5027747;28;25083;-63
2023/10/29 08:22:35;;;;;;;13.02;4.10;;;;;;;;;;5019679;28;25143;-60
2023/10/29 08:25:01;;;;;;;7.40;3.40;;;;;;;;;;5023057;28;25074;-60
2023/10/29 08:27:26;;;;;;;9.27;3.28;;;;;;;;;;5026883;28;25161;-63
2023/10/29 08:29:53;;;;;;;13.65;3.33;;;;;;;;;;5025163;28;25157;-62
2023/10/29 08:32:19;;;;;;;14.05;3.83;;;;;;;;;;5026017;28;25056;-63
2023/10/29 08:34:45;;;;;;;15.23;2.70;;;;;;;;;;5024193;28;25167;-62
2023/10/29 08:37:11;;;;;;;15.73;3.22;;;;;;;;;;5031576;28;25058;-61
2023/10/29 08:39:37;;;;;;;8.18;2.33;;;;;;;;;;5043372;28;25053;-61
2023/10/29 08:42:04;;;;;;;14.73;3.20;;;;;;;;;;5037599;28;25117;-62
2023/10/29 08:44:29;;;;;;;13.80;3.10;;;;;;;;;;5040630;28;25056;-62
2023/10/29 08:46:56;;;;;;;7.68;2.28;;;;;;;;;;5043230;28;25064;-60
2023/10/29 08:49:22;;;;;;;13.65;2.63;;;;;;;;;;5047351;28;25051;-62
2023/10/29 08:51:48;;;;;;;12.40;1.77;;;;;;;;;;5044640;28;25078;-62
2023/10/29 08:54:14;;;;;;;9.65;2.83;;;;;;;;;;5045762;28;25075;-61
2023/10/29 08:56:40;;;;;;;14.82;2.70;;;;;;;;;;5043551;28;25058;-61
2023/10/29 08:59:06;;;;;;;13.02;3.00;;;;;;;;;;5038871;28;25070;-61
2023/10/29 09:01:32;;;;;;;12.50;2.60;;;;;;;;;;5039254;28;25146;-62
2023/10/29 09:03:58;;;;;;;18.05;2.97;;;;;;;;;;5040851;28;25067;-62
2023/10/29 09:06:24;;;;;;;9.70;2.67;;;;;;;;;;5043311;28;25079;-61
2023/10/29 09:08:51;;;;;;;6.55;1.95;;;;;;;;;;5047003;28;25106;-61
2023/10/29 09:11:17;;;;;;;12.20;2.38;;;;;;;;;;5046861;28;25119;-62
2023/10/29 09:13:43;;;;;;;11.80;2.80;;;;;;;;;;5046925;28;25066;-61
2023/10/29 09:16:09;;;;;;;12.73;2.40;;;;;;;;;;5045433;28;25142;-62
2023/10/29 09:18:35;;;;;;;13.43;3.67;;;;;;;;;;5037598;28;25128;-60
2023/10/29 09:21:01;;;;;;;11.85;2.72;;;;;;;;;;5042849;28;25076;-61
2023/10/29 09:23:29;;;;;;;16.75;2.67;;;;;;;;;;5044197;28;25135;-61
2023/10/29 09:25:55;;;;;;;15.65;3.35;;;;;;;;;;5035005;28;25059;-61
2023/10/29 09:28:21;;;;;;;18.02;2.60;;;;;;;;;;5045038;28;25066;-62
2023/10/29 09:30:47;;;;;;;12.18;2.70;;;;;;;;;;5043871;28;25071;-60
2023/10/29 09:33:15;;;;;;;13.40;2.50;;;;;;;;;;5044904;28;25135;-60
2023/10/29 09:35:41;;;;;;;10.95;2.58;;;;;;;;;;5048664;28;25063;-62
2023/10/29 09:38:07;;;;;;;9.38;2.45;;;;;;;;;;5043355;28;25129;-61
2023/10/29 09:40:33;;;;;;;17.13;4.38;;;;;;;;;;5044256;28;25106;-62
2023/10/29 09:43:03;;;;;;;18.02;3.90;;;;;;;;;;5046719;28;25053;-61
2023/10/29 09:45:29;;;;;;;20.27;2.53;;;;;;;;;;5047894;28;25076;-61
2023/10/29 09:47:58;;;;;;;16.67;2.85;;;;;;;;;;5039010;28;25082;-61
2023/10/29 09:50:25;;;;;;;14.32;2.88;;;;;;;;;;5046329;28;25055;-62
2023/10/29 09:52:55;;;;;;;15.25;2.90;;;;;;;;;;5045825;28;25138;-62
2023/10/29 09:55:21;;;;;;;15.93;3.53;;;;;;;;;;5046732;28;25058;-61
2023/10/29 09:57:47;;;;;;;17.25;3.15;;;;;;;;;;5046196;28;25138;-62
2023/10/29 10:00:17;;;;;;;14.50;3.20;;;;;;;;;;5045310;28;25140;-62
2023/10/29 10:02:53;;;;;;;15.98;2.42;;;;;;;;;;5044306;28;26195;-61
2023/10/29 10:05:20;;;;;;;13.70;2.78;;;;;;;;;;5043522;28;25182;-60
2023/10/29 10:07:47;;;;;;;15.05;3.03;;;;;;;;;;5042417;28;25064;-62
2023/10/29 10:10:13;;;;;;;18.63;3.30;;;;;;;;;;5045403;28;25057;-62
2023/10/29 10:12:52;;;;;;;18.88;3.50;;;;;;;;;;5045661;28;25112;-61
2023/10/29 10:15:18;;;;;;;23.52;3.20;;;;;;;;;;5041672;28;25067;-62
2023/10/29 10:17:48;;;;;;;14.93;2.50;;;;;;;;;;5047362;28;25056;-63
2023/10/29 10:20:16;;;;;;;17.75;3.10;;;;;;;;;;5045134;28;25079;-61
2023/10/29 10:22:43;;;;;;;14.85;3.22;;;;;;;;;;5043884;28;25055;-62
2023/10/29 10:25:16;;;;;;;14.95;3.22;;;;;;;;;;5040329;28;25059;-62
2023/10/29 10:27:49;;;;;;;12.85;3.00;;;;;;;;;;5038941;28;25062;-61
2023/10/29 10:30:15;;;;;;;;;;;;;;;;;;5049174;28;25047;-61
2023/10/29 10:32:41;;;;;;;15.40;3.33;;;;;;;;;;5042418;28;25063;-62
2023/10/29 10:35:07;;;;;;;14.88;2.60;;;;;;;;;;5043804;28;25111;-62
2023/10/29 10:37:52;;;;;;;9.95;2.95;;;;;;;;;;5041727;28;25074;-62
2023/10/29 10:40:26;;;;;;;13.30;3.03;;;;;;;;;;5040934;28;25077;-61
2023/10/29 10:42:55;;;;;;;12.18;2.42;;;;;;;;;;5045701;28;25060;-61
2023/10/29 10:45:26;;;;;;;13.80;3.15;;;;;;;;;;5043405;28;25064;-61
2023/10/29 10:47:54;;;;;;;13.02;3.00;;;;;;;;;;5041368;28;25117;-62
2023/10/29 10:50:21;;;;;;;11.32;2.92;;;;;;;;;;5058954;28;25057;-61
2023/10/29 10:52:49;;;;;;;23.00;3.80;;;;;;;;;;5043584;28;25062;-61
2023/10/29 10:55:15;;;;;;;15.48;2.72;;;;;;;;;;5046415;28;25063;-62
2023/10/29 10:57:41;;;;;;;13.82;3.53;;;;;;;;;;5039209;28;25143;-60
2023/10/29 11:00:10;;;;;;;11.90;2.67;;;;;;;;;;5045068;28;25085;-62
2023/10/29 11:02:41;;;;;;;17.40;2.78;;;;;;;;;;5037161;28;25060;-61
2023/10/29 11:05:09;;;;;;;15.82;2.80;;;;;;;;;;5039433;28;25056;-61
2023/10/29 11:07:35;;;;;;;14.90;2.83;;;;;;;;;;5043790;28;25079;-62
2023/10/29 11:10:02;;;;;;;15.85;3.92;;;;;;;;;;5037587;28;25073;-62
2023/10/29 11:12:33;;;;;;;12.95;2.63;;;;;;;;;;5042680;28;25056;-61
2023/10/29 11:15:16;;;;;;;14.57;3.30;;;;;;;;;;5043993;28;25113;-62
2023/10/29 11:18:01;;;;;;;14.32;2.83;;;;;;;;;;5041897;28;25053;-61
2023/10/29 11:20:39;;;;;;;20.88;3.42;;;;;;;;;;5040241;28;25148;-63
2023/10/29 11:23:08;;;;;;;15.43;2.90;;;;;;;;;;5035374;28;25048;-63
2023/10/29 11:25:34;;;;;;;15.25;3.33;;;;;;;;;;5036220;28;25065;-62
2023/10/29 11:28:01;;;;;;;15.57;2.75;;;;;;;;;;5035950;28;25097;-61
2023/10/29 11:30:28;;;;;;;19.13;2.85;;;;;;;;;;5036093;28;25093;-63
2023/10/29 11:33:22;;;;;;;13.73;3.20;;;;;;;;;;5040148;28;25070;-62
2023/10/29 11:35:48;;;;;;;14.65;2.97;;;;;;;;;;5032300;28;25063;-62
2023/10/29 11:38:27;;;;;;;19.92;3.17;;;;;;;;;;5037224;28;25066;-63
2023/10/29 11:40:53;;;;;;;11.55;3.65;;;;;;;;;;5035507;28;25136;-62
2023/10/29 11:43:22;;;;;;;18.40;3.13;;;;;;;;;;5042057;28;25136;-62
2023/10/29 11:45:58;;;;;;;12.10;2.47;;;;;;;;;;5042365;28;25110;-61
2023/10/29 11:48:24;;;;;;;15.40;3.40;;;;;;;;;;5041694;28;25073;-63
2023/10/29 11:51:08;;;;;;;14.23;2.90;;;;;;;;;;5049166;28;25167;-63
2023/10/29 11:53:34;;;;;;;15.00;3.00;;;;;;;;;;5042091;28;25076;-63
2023/10/29 11:56:04;;;;;;;21.42;3.75;;;;;;;;;;5047297;28;25051;-62
2023/10/29 11:58:31;;;;;;;13.88;3.17;;;;;;;;;;5034444;28;25056;-62
2023/10/29 12:00:57;;;;;;;15.65;2.97;;;;;;;;;;5024036;28;25070;-62
2023/10/29 12:03:23;;;;;;;16.17;2.88;;;;;;;;;;5025885;28;25064;-62
2023/10/29 12:05:50;;;;;;;12.45;3.35;;;;;;;;;;5044918;28;25163;-62
2023/10/29 12:08:16;;;;;;;17.67;3.40;;;;;;;;;;5040805;28;25054;-61
2023/10/29 12:10:49;;;;;;;15.70;2.97;;;;;;;;;;5041016;28;25107;-62
2023/10/29 12:13:18;;;;;;;14.45;2.83;;;;;;;;;;5036335;28;25094;-62
2023/10/29 12:15:47;;;;;;;19.95;3.20;;;;;;;;;;5043709;28;25077;-63
2023/10/29 12:18:20;;;;;;;9.32;2.25;;;;;;;;;;5040190;28;25051;-62
2023/10/29 12:20:47;;;;;;;17.23;4.03;;;;;;;;;;5043189;28;25137;-62
2023/10/29 12:23:13;;;;;;;12.43;3.00;;;;;;;;;;5043864;28;25068;-64
2023/10/29 12:25:39;;;;;;;12.25;3.25;;;;;;;;;;5046929;28;25095;-63
2023/10/29 12:28:06;;;;;;;13.57;2.70;;;;;;;;;;5041544;28;25071;-63
2023/10/29 12:30:35;;;;;;;19.15;3.47;;;;;;;;;;5036343;28;25059;-61
2023/10/29 12:33:17;;;;;;;10.60;3.10;;;;;;;;;;5040634;28;25073;-63
2023/10/29 12:35:43;;;;;;;18.30;3.15;;;;;;;;;;5040816;28;25094;-62
2023/10/29 12:38:12;;;;;;;16.98;2.67;;;;;;;;;;5040980;28;25062;-63
2023/10/29 12:40:38;;;;;;;14.00;2.88;;;;;;;;;;5044422;28;25148;-61
2023/10/29 12:43:04;;;;;;;14.93;3.08;;;;;;;;;;5036267;28;25079;-62
2023/10/29 12:45:35;;;;;;;15.57;3.75;;;;;;;;;;5040325;28;25104;-62
2023/10/29 12:48:08;;;;;;;13.63;3.20;;;;;;;;;;5040721;28;25060;-62
2023/10/29 12:50:46;;;;;;;18.48;3.45;;;;;;;;;;5047144;28;25047;-61
2023/10/29 12:53:12;;;;;;;11.38;3.13;;;;;;;;;;5045534;28;25133;-62
2023/10/29 12:55:45;;;;;;;18.58;3.08;;;;;;;;;;5043306;28;25044;-62
2023/10/29 12:58:11;;;;;;;15.75;3.08;;;;;;;;;;5049047;28;25154;-63
2023/10/29 13:00:37;;;;;;;16.35;3.25;;;;;;;;;;5047351;28;25069;-63
2023/10/29 13:03:07;;;;;;;16.08;2.70;;;;;;;;;;5044103;28;25055;-62
2023/10/29 13:05:36;;;;;;;16.35;3.75;;;;;;;;;;5042226;28;25115;-64
2023/10/29 13:08:04;;;;;;;12.65;2.95;;;;;;;;;;5044732;28;25071;-63
2023/10/29 13:10:30;;;;;;;16.73;3.15;;;;;;;;;;5042902;28;25048;-61
2023/10/29 13:12:56;;;;;;;20.58;3.63;;;;;;;;;;5042930;28;25062;-62
2023/10/29 13:15:23;;;;;;;16.52;3.35;;;;;;;;;;5042820;28;25091;-63
2023/10/29 13:17:49;;;;;;;11.85;3.10;;;;;;;;;;5040452;28;25078;-62
2023/10/29 13:20:15;;;;;;;17.17;3.90;;;;;;;;;;5041670;28;25131;-63
2023/10/29 13:22:42;;;;;;;16.10;3.28;;;;;;;;;;5045245;28;25126;-61
2023/10/29 13:25:08;;;;;;;18.10;3.33;;;;;;;;;;5039966;28;25056;-62
2023/10/29 13:27:34;;;;;;;10.27;3.00;;;;;;;;;;5042884;28;25064;-61
2023/10/29 13:30:00;;;;;;;15.15;3.20;;;;;;;;;;5045734;28;25136;-62
2023/10/29 13:32:26;;;;;;;15.63;3.10;;;;;;;;;;5043686;28;25053;-63
2023/10/29 13:34:54;;;;;;;14.43;3.13;;;;;;;;;;5043742;28;25063;-62
2023/10/29 13:37:19;;;;;;;12.57;3.55;;;;;;;;;;5045348;28;25072;-62
2023/10/29 13:39:46;;;;;;;16.05;2.85;;;;;;;;;;5044084;28;25118;-63
2023/10/29 13:42:11;;;;;;;10.50;2.60;;;;;;;;;;5043402;28;25097;-61
2023/10/29 13:44:38;;;;;;;15.75;3.63;;;;;;;;;;5043062;28;25152;-62
2023/10/29 13:47:04;;;;;;;12.68;3.15;;;;;;;;;;5039575;28;25064;-63
2023/10/29 13:49:30;;;;;;;14.98;2.95;;;;;;;;;;5043802;28;25053;-62
2023/10/29 13:51:56;;;;;;;17.00;4.00;;;;;;;;;;5045063;28;25055;-61
2023/10/29 13:54:22;;;;;;;12.80;3.35;;;;;;;;;;5041255;28;25069;-62
2023/10/29 13:56:48;;;;;;;9.02;2.92;;;;;;;;;;5042527;28;25124;-62
2023/10/29 13:59:14;;;;;;;13.02;2.92;;;;;;;;;;5041848;28;25044;-63
2023/10/29 14:01:40;;;;;;;14.68;3.45;;;;;;;;;;5044290;28;25054;-64
2023/10/29 14:04:06;;;;;;;12.65;2.53;;;;;;;;;;5038447;28;25138;-63
2023/10/29 14:06:33;;;;;;;7.30;2.40;;;;;;;;;;5044109;28;25101;-61
2023/10/29 14:08:59;;;;;;;10.02;2.40;;;;;;;;;;5043021;28;25093;-63
2023/10/29 14:11:25;;;;;;;7.57;2.38;;;;;;;;;;5043090;28;25088;-62
2023/10/29 14:13:51;;;;;;;7.05;2.25;;;;;;;;;;5045070;28;25068;-61
2023/10/29 14:16:18;;;;;;;8.48;2.70;;;;;;;;;;5040311;28;25136;-61
2023/10/29 14:18:44;;;;;;;18.70;4.63;;;;;;;;;;5045272;28;25060;-61
2023/10/29 14:21:10;;;;;;;8.95;2.30;;;;;;;;;;5037679;28;25073;-61
2023/10/29 14:23:36;;;;;;;8.40;2.58;;;;;;;;;;5039721;28;25069;-63
2023/10/29 14:26:02;;;;;;;9.20;3.20;;;;;;;;;;5039703;28;25107;-63
2023/10/29 14:28:28;;;;;;;8.80;3.10;;;;;;;;;;5038693;28;25109;-62
2023/10/29 14:30:54;;;;;;;8.27;4.03;;;;;;;;;;5041509;28;25069;-61